Time;durP1;ratioP1;P1;durP2;ratioP2;P2;SDS_P1;SDS_P2;PMS_P1;PMS_P2;Temp;Humidity;BMP_temperature;BMP_pressure;BME280_temperature;BME280_humidity;BME280_pressure;Samples;Min_cycle;Max_cycle;Signal;HPM_P1;HPM_P2
2023/11/10 00:00:42;;;;;;;1999.90;999.90;;;6.90;99.90;;;;;;5037691;28;20056;-68
2023/11/10 00:03:08;;;;;;;1999.90;999.90;;;6.90;99.90;;;;;;5047118;28;20061;-76
2023/11/10 00:05:35;;;;;;;1999.90;999.90;;;6.90;99.90;;;;;;5054700;28;20480;-68
2023/11/10 00:08:01;;;;;;;1999.90;999.90;;;6.90;99.90;;;;;;5051065;28;20339;-69
2023/11/10 00:10:27;;;;;;;1999.90;999.90;;;6.90;99.90;;;;;;5052875;28;20037;-68
2023/11/10 00:12:55;;;;;;;1999.90;999.90;;;6.90;99.90;;;;;;5051477;28;20056;-68
2023/11/10 00:15:24;;;;;;;1999.90;999.90;;;7.00;99.90;;;;;;5056068;28;20102;-68
2023/11/10 00:17:50;;;;;;;1999.90;999.90;;;7.00;99.90;;;;;;5056475;28;20025;-68
2023/11/10 00:20:17;;;;;;;1999.90;999.90;;;7.00;99.90;;;;;;5052234;28;20511;-75
2023/11/10 00:22:42;;;;;;;1999.90;999.90;;;7.00;99.90;;;;;;5054999;28;20033;-67
2023/11/10 00:25:08;;;;;;;1999.90;999.90;;;7.00;99.90;;;;;;5048118;28;20032;-68
2023/11/10 00:27:35;;;;;;;1999.90;999.90;;;7.10;99.90;;;;;;5051803;28;20066;-68
2023/11/10 00:30:02;;;;;;;1999.90;999.90;;;7.00;99.90;;;;;;5053739;28;20053;-69
2023/11/10 00:32:27;;;;;;;1999.90;999.90;;;7.00;99.90;;;;;;5053740;28;20036;-68
2023/11/10 00:34:53;;;;;;;1999.90;999.90;;;7.10;99.90;;;;;;5054627;28;20029;-67
2023/11/10 00:37:19;;;;;;;1999.90;999.90;;;7.10;99.90;;;;;;5051170;28;20319;-82
2023/11/10 00:39:44;;;;;;;1999.90;999.90;;;7.10;99.90;;;;;;5055729;28;20025;-68
2023/11/10 00:42:11;;;;;;;1999.90;999.90;;;7.10;99.90;;;;;;5055466;28;20071;-68
2023/11/10 00:44:37;;;;;;;1999.90;999.90;;;7.00;99.90;;;;;;5055127;28;20119;-68
2023/11/10 00:47:03;;;;;;;1999.90;999.90;;;7.00;99.90;;;;;;5053309;28;20112;-68
2023/11/10 00:49:30;;;;;;;1999.90;999.90;;;7.00;99.90;;;;;;5054392;28;20565;-67
2023/11/10 00:51:55;;;;;;;1999.90;999.90;;;7.00;99.90;;;;;;5052806;28;20132;-67
2023/11/10 00:54:21;;;;;;;1999.90;999.90;;;6.90;99.90;;;;;;5052297;28;20112;-76
2023/11/10 00:56:47;;;;;;;1999.90;999.90;;;6.90;99.90;;;;;;5054070;28;20116;-67
2023/11/10 00:59:13;;;;;;;1999.90;999.90;;;7.00;99.90;;;;;;5054767;28;20036;-67
2023/11/10 01:01:39;;;;;;;1999.90;999.90;;;7.00;99.90;;;;;;5047390;28;20033;-68
2023/11/10 01:04:06;;;;;;;1999.90;999.90;;;7.10;99.90;;;;;;5055227;28;20032;-67
2023/11/10 01:06:32;;;;;;;;;;;7.10;99.90;;;;;;5054307;28;20064;-67
2023/11/10 01:08:58;;;;;;;1999.90;999.90;;;7.10;99.90;;;;;;5052575;28;19912;-69
2023/11/10 01:11:24;;;;;;;1999.90;999.90;;;7.10;99.90;;;;;;5052484;28;20052;-68
2023/11/10 01:13:50;;;;;;;1999.90;999.90;;;7.10;99.90;;;;;;5054341;28;20051;-68
2023/11/10 01:16:16;;;;;;;1999.90;999.90;;;7.20;99.90;;;;;;5052137;28;20033;-67
2023/11/10 01:18:42;;;;;;;1999.90;999.90;;;7.20;99.90;;;;;;5045113;28;20051;-67
2023/11/10 01:21:08;;;;;;;1999.90;999.90;;;7.10;99.90;;;;;;5051131;28;20021;-68
2023/11/10 01:23:34;;;;;;;1999.90;999.90;;;7.10;99.90;;;;;;5053536;28;20040;-67
2023/11/10 01:26:00;;;;;;;1999.90;999.90;;;7.10;99.90;;;;;;5051976;28;20033;-77
2023/11/10 01:28:26;;;;;;;1999.90;999.90;;;7.10;99.90;;;;;;5043404;28;20027;-67
2023/11/10 01:30:52;;;;;;;1999.90;999.90;;;7.10;99.90;;;;;;5053796;28;20412;-68
2023/11/10 01:33:18;;;;;;;1999.90;999.90;;;7.20;99.90;;;;;;5051954;28;20071;-68
2023/11/10 01:35:44;;;;;;;1999.90;999.90;;;7.20;99.90;;;;;;5040382;28;20069;-67
2023/11/10 01:38:10;;;;;;;1999.90;999.90;;;7.20;99.90;;;;;;5048860;28;20111;-68
2023/11/10 01:40:40;;;;;;;1999.90;999.90;;;7.20;99.90;;;;;;5045548;28;20060;-67
2023/11/10 01:43:14;;;;;;;1999.90;999.90;;;7.20;99.90;;;;;;5052834;28;20409;-68
2023/11/10 01:45:41;;;;;;;1999.90;999.90;;;7.10;99.90;;;;;;5038898;28;20095;-68
2023/11/10 01:48:08;;;;;;;1999.90;999.90;;;7.10;99.90;;;;;;5053228;28;20025;-68
2023/11/10 01:50:34;;;;;;;1999.90;999.90;;;7.10;99.90;;;;;;5054079;28;20102;-68
2023/11/10 01:53:03;;;;;;;1999.90;999.90;;;7.10;99.90;;;;;;5050993;28;20060;-68
2023/11/10 01:55:30;;;;;;;1999.90;999.90;;;7.00;99.90;;;;;;5050713;28;20040;-78
2023/11/10 01:57:57;;;;;;;1999.90;999.90;;;7.10;99.90;;;;;;5051943;28;20043;-67
2023/11/10 02:00:29;;;;;;;1999.90;999.90;;;7.10;99.90;;;;;;5050111;28;20029;-67
2023/11/10 02:02:58;;;;;;;1999.90;999.90;;;7.10;99.90;;;;;;5045997;28;20056;-76
2023/11/10 02:05:24;;;;;;;1999.90;999.90;;;7.10;99.90;;;;;;5042860;28;20029;-68
2023/11/10 02:07:50;;;;;;;1999.90;999.90;;;7.10;99.90;;;;;;5053463;28;20291;-68
2023/11/10 02:10:16;;;;;;;1999.90;999.90;;;7.10;99.90;;;;;;5049813;28;20464;-67
2023/11/10 02:12:51;;;;;;;1999.90;999.90;;;7.20;99.90;;;;;;5051056;28;20320;-68
2023/11/10 02:15:17;;;;;;;1999.90;999.90;;;7.10;99.90;;;;;;5052002;28;20503;-68
2023/11/10 02:17:42;;;;;;;1999.90;999.90;;;7.10;99.90;;;;;;5050892;28;20033;-68
2023/11/10 02:20:09;;;;;;;1999.90;999.90;;;7.10;99.90;;;;;;5052362;28;20078;-67
2023/11/10 02:22:35;;;;;;;1999.90;999.90;;;7.20;99.90;;;;;;5052005;28;20044;-67
2023/11/10 02:25:03;;;;;;;1999.90;999.90;;;7.20;99.90;;;;;;5053877;28;20033;-71
2023/11/10 02:27:28;;;;;;;1999.90;999.90;;;7.10;99.90;;;;;;5046145;28;20062;-77
2023/11/10 02:29:54;;;;;;;1999.90;999.90;;;7.10;99.90;;;;;;5052557;28;20029;-67
2023/11/10 02:32:20;;;;;;;1999.90;999.90;;;7.20;99.90;;;;;;5050168;28;20048;-68
2023/11/10 02:34:45;;;;;;;1999.90;999.90;;;7.20;99.90;;;;;;5053588;28;20029;-67
2023/11/10 02:37:13;;;;;;;1999.90;999.90;;;7.20;99.90;;;;;;5052393;28;20316;-68
2023/11/10 02:39:39;;;;;;;1999.90;999.90;;;7.20;99.90;;;;;;5053301;28;20308;-68
2023/11/10 02:42:06;;;;;;;1999.90;999.90;;;7.20;99.90;;;;;;5053110;28;20032;-67
2023/11/10 02:44:32;;;;;;;1999.90;999.90;;;7.20;99.90;;;;;;5052332;28;20029;-67
2023/11/10 02:46:57;;;;;;;1999.90;999.90;;;7.30;99.90;;;;;;5051900;28;20051;-76
2023/11/10 02:49:23;;;;;;;1999.90;999.90;;;7.30;99.90;;;;;;5048901;28;20025;-67
2023/11/10 02:51:49;;;;;;;1999.90;999.90;;;7.30;99.90;;;;;;5048192;28;20071;-68
2023/11/10 02:54:15;;;;;;;1999.90;999.90;;;7.20;99.90;;;;;;5047412;28;20095;-77
2023/11/10 02:56:41;;;;;;;1999.90;999.90;;;7.20;99.90;;;;;;5038082;28;20141;-68
2023/11/10 02:59:06;;;;;;;1999.90;999.90;;;7.20;99.90;;;;;;5040267;28;20052;-68
2023/11/10 03:01:32;;;;;;;1999.90;999.90;;;7.20;99.90;;;;;;5048685;28;20032;-67
2023/11/10 03:03:58;;;;;;;1999.90;999.90;;;7.20;99.90;;;;;;5038335;28;20032;-75
2023/11/10 03:06:24;;;;;;;1999.90;999.90;;;7.20;99.90;;;;;;5039522;28;20128;-67
2023/11/10 03:08:49;;;;;;;1999.90;999.90;;;7.10;99.90;;;;;;5041708;28;20033;-67
2023/11/10 03:11:16;;;;;;;1999.90;999.90;;;7.10;99.90;;;;;;5046296;28;20029;-67
2023/11/10 03:13:42;;;;;;;1999.90;999.90;;;7.10;99.90;;;;;;5047708;28;20043;-68
2023/11/10 03:16:08;;;;;;;1999.90;999.90;;;7.10;99.90;;;;;;5049326;28;20033;-67
2023/11/10 03:18:34;;;;;;;1999.90;999.90;;;7.10;99.90;;;;;;5043294;28;20056;-69
2023/11/10 03:21:00;;;;;;;1999.90;999.90;;;7.20;99.90;;;;;;5041719;28;20130;-75
2023/11/10 03:23:26;;;;;;;1999.90;999.90;;;7.20;99.90;;;;;;5049003;28;20021;-67
2023/11/10 03:25:52;;;;;;;1999.90;999.90;;;7.30;99.90;;;;;;5042987;28;20435;-68
2023/11/10 03:28:18;;;;;;;1999.90;999.90;;;7.30;99.90;;;;;;5041182;28;20028;-68
2023/11/10 03:30:44;;;;;;;1999.90;999.90;;;7.40;99.90;;;;;;5040347;28;20025;-68
2023/11/10 03:33:10;;;;;;;1999.90;999.90;;;7.40;99.90;;;;;;5042734;28;20079;-68
2023/11/10 03:35:36;;;;;;;1999.90;999.90;;;7.50;99.90;;;;;;5044145;28;20025;-68
2023/11/10 03:38:01;;;;;;;1999.90;999.90;;;7.50;99.90;;;;;;5045189;28;20098;-69
2023/11/10 03:40:28;;;;;;;1999.90;999.90;;;7.60;99.90;;;;;;5046068;28;20037;-68
2023/11/10 03:42:53;;;;;;;1999.90;999.90;;;7.60;99.90;;;;;;5047602;28;20025;-68
2023/11/10 03:45:19;;;;;;;1999.90;999.90;;;7.50;99.90;;;;;;5050903;28;20044;-68
2023/11/10 03:47:45;;;;;;;1999.90;999.90;;;7.50;99.90;;;;;;5046391;28;20021;-68
2023/11/10 03:50:11;;;;;;;1999.90;999.90;;;7.50;99.90;;;;;;5046954;28;20440;-68
2023/11/10 03:52:37;;;;;;;1999.90;999.90;;;7.50;99.90;;;;;;5041227;28;20427;-68
2023/11/10 03:55:04;;;;;;;1999.90;999.90;;;7.50;99.90;;;;;;5047513;28;20061;-68
2023/11/10 03:57:31;;;;;;;1999.90;999.90;;;7.50;99.90;;;;;;5052943;28;20042;-68
2023/11/10 03:59:56;;;;;;;;;;;7.50;99.90;;;;;;5051103;28;20025;-68
2023/11/10 04:02:22;;;;;;;1999.90;999.90;;;7.50;99.90;;;;;;5055601;28;19919;-68
2023/11/10 04:04:48;;;;;;;1999.90;999.90;;;7.60;99.90;;;;;;5046504;28;20289;-79
2023/11/10 04:07:14;;;;;;;1999.90;999.90;;;7.60;99.90;;;;;;5055098;28;20118;-68
2023/11/10 04:09:40;;;;;;;1999.90;999.90;;;7.60;99.90;;;;;;5052544;28;20039;-68
2023/11/10 04:12:06;;;;;;;1999.90;999.90;;;7.60;99.90;;;;;;5053027;28;20033;-68
2023/11/10 04:14:32;;;;;;;1999.90;999.90;;;7.60;99.90;;;;;;5055265;28;20053;-68
2023/11/10 04:16:58;;;;;;;1999.90;999.90;;;7.60;99.90;;;;;;5054735;28;20067;-79
2023/11/10 04:19:24;;;;;;;1999.90;999.90;;;7.60;99.90;;;;;;5045754;28;20369;-67
2023/11/10 04:21:49;;;;;;;1999.90;999.90;;;7.60;99.90;;;;;;5053636;28;20056;-77
2023/11/10 04:24:15;;;;;;;1999.90;999.90;;;7.60;99.90;;;;;;5051238;28;20030;-68
2023/11/10 04:26:41;;;;;;;1999.90;999.90;;;7.70;99.90;;;;;;5043384;28;20028;-68
2023/11/10 04:29:09;;;;;;;1999.90;999.90;;;7.70;99.90;;;;;;5039666;28;20033;-68
2023/11/10 04:31:35;;;;;;;1999.90;999.90;;;7.70;99.90;;;;;;5053148;28;20035;-67
2023/11/10 04:34:02;;;;;;;1999.90;999.90;;;7.60;99.90;;;;;;5048816;28;20104;-69
2023/11/10 04:36:31;;;;;;;1999.90;999.90;;;7.60;99.90;;;;;;5047598;28;20047;-68
2023/11/10 04:38:58;;;;;;;1999.90;999.90;;;7.60;99.90;;;;;;5053811;28;20032;-77
2023/11/10 04:41:24;;;;;;;1999.90;999.90;;;7.70;99.90;;;;;;5055706;28;20024;-68
2023/11/10 04:43:50;;;;;;;1999.90;999.90;;;7.60;99.90;;;;;;5055417;28;20033;-67
2023/11/10 04:46:16;;;;;;;1999.90;999.90;;;7.60;99.90;;;;;;5047416;28;20013;-81
2023/11/10 04:48:42;;;;;;;1999.90;999.90;;;7.70;99.90;;;;;;5055550;28;20033;-69
2023/11/10 04:51:07;;;;;;;1999.90;999.90;;;7.70;99.90;;;;;;5054657;28;20053;-69
2023/11/10 04:53:33;;;;;;;1999.90;999.90;;;7.70;99.90;;;;;;5050727;28;20028;-69
2023/11/10 04:56:01;;;;;;;1999.90;999.90;;;7.70;99.90;;;;;;5047120;28;20074;-75
2023/11/10 04:58:26;;;;;;;1999.90;999.90;;;7.60;99.90;;;;;;5053441;28;20327;-69
2023/11/10 05:00:53;;;;;;;1999.90;999.90;;;7.60;99.90;;;;;;5051508;28;20037;-68
2023/11/10 05:03:19;;;;;;;1999.90;999.90;;;7.50;99.90;;;;;;5051033;28;20127;-73
2023/11/10 05:05:48;;;;;;;1999.90;999.90;;;7.50;99.90;;;;;;5054754;28;20419;-68
2023/11/10 05:08:13;;;;;;;1999.90;999.90;;;7.50;99.90;;;;;;5053154;28;20025;-68
2023/11/10 05:10:40;;;;;;;1999.90;999.90;;;7.50;99.90;;;;;;5049667;28;20033;-68
2023/11/10 05:13:05;;;;;;;1999.90;999.90;;;7.40;99.90;;;;;;5054323;28;20029;-69
2023/11/10 05:15:31;;;;;;;1999.90;999.90;;;7.40;99.90;;;;;;5053000;28;20427;-68
2023/11/10 05:17:57;;;;;;;1999.90;999.90;;;7.30;99.90;;;;;;5053237;28;20408;-72
2023/11/10 05:20:23;;;;;;;1999.90;999.90;;;7.30;99.90;;;;;;5053040;28;20415;-69
2023/11/10 05:22:48;;;;;;;1999.90;999.90;;;7.30;99.90;;;;;;5050409;28;20075;-68
2023/11/10 05:25:15;;;;;;;1999.90;999.90;;;7.30;99.90;;;;;;5043100;28;20039;-68
2023/11/10 05:27:41;;;;;;;1999.90;999.90;;;7.30;99.90;;;;;;5045413;28;20032;-68
2023/11/10 05:30:09;;;;;;;1999.90;999.90;;;7.30;99.90;;;;;;5048814;28;20041;-77
2023/11/10 05:32:34;;;;;;;1999.90;999.90;;;7.30;99.90;;;;;;5048184;28;20116;-68
2023/11/10 05:35:00;;;;;;;1999.90;999.90;;;7.30;99.90;;;;;;5053724;28;20108;-76
2023/11/10 05:37:27;;;;;;;1999.90;999.90;;;7.30;99.90;;;;;;5053291;28;20017;-68
2023/11/10 05:39:53;;;;;;;1999.90;999.90;;;7.30;99.90;;;;;;5054539;28;20280;-68
2023/11/10 05:42:20;;;;;;;1999.90;999.90;;;7.30;99.90;;;;;;5052473;28;20033;-68
2023/11/10 05:44:47;;;;;;;1999.90;999.90;;;7.30;99.90;;;;;;5049468;28;20317;-68
2023/11/10 05:47:12;;;;;;;1999.90;999.90;;;7.40;99.90;;;;;;5046727;28;20037;-68
2023/11/10 05:49:39;;;;;;;1999.90;999.90;;;7.40;99.90;;;;;;5048764;28;20059;-69
2023/11/10 05:52:05;;;;;;;1999.90;999.90;;;7.40;99.90;;;;;;5044834;28;20040;-69
2023/11/10 05:54:31;;;;;;;1999.90;999.90;;;7.40;99.90;;;;;;5044862;28;20074;-68
2023/11/10 05:56:57;;;;;;;1999.90;999.90;;;7.40;99.90;;;;;;5047129;28;20638;-69
2023/11/10 05:59:25;;;;;;;1999.90;999.90;;;7.40;99.90;;;;;;5044756;28;20091;-68
2023/11/10 06:01:50;;;;;;;1999.90;999.90;;;7.40;99.90;;;;;;5046974;28;20273;-68
2023/11/10 06:04:16;;;;;;;1999.90;999.90;;;7.40;99.90;;;;;;5046458;28;20316;-76
2023/11/10 06:06:43;;;;;;;1999.90;999.90;;;7.40;99.90;;;;;;5048175;28;20036;-68
2023/11/10 06:09:09;;;;;;;;;;;7.40;99.90;;;;;;5044155;28;20025;-69
2023/11/10 06:11:35;;;;;;;1999.90;999.90;;;7.30;99.90;;;;;;5046128;28;20423;-68
2023/11/10 06:14:02;;;;;;;1999.90;999.90;;;7.30;99.90;;;;;;5041140;28;20034;-70
2023/11/10 06:16:28;;;;;;;1999.90;999.90;;;7.40;99.90;;;;;;5044499;28;20022;-68
2023/11/10 06:18:54;;;;;;;1999.90;999.90;;;7.30;99.90;;;;;;5043618;28;20029;-68
2023/11/10 06:21:23;;;;;;;1999.90;999.90;;;7.30;99.90;;;;;;5040497;28;20151;-77
2023/11/10 06:23:53;;;;;;;1999.90;999.90;;;7.30;99.90;;;;;;5042090;28;20311;-68
2023/11/10 06:26:20;;;;;;;1999.90;999.90;;;7.30;99.90;;;;;;5045667;28;20029;-68
2023/11/10 06:28:50;;;;;;;1999.90;999.90;;;7.40;99.90;;;;;;5049901;28;20501;-75
2023/11/10 06:31:16;;;;;;;1999.90;999.90;;;7.30;99.90;;;;;;5047268;28;20048;-68
2023/11/10 06:33:43;;;;;;;1999.90;999.90;;;7.40;99.90;;;;;;5043454;28;20113;-69
2023/11/10 06:36:09;;;;;;;1999.90;999.90;;;7.30;99.90;;;;;;5047472;28;20029;-68
2023/11/10 06:38:37;;;;;;;1999.90;999.90;;;7.30;99.90;;;;;;5048554;28;20061;-69
2023/11/10 06:41:03;;;;;;;1999.90;999.90;;;7.40;99.90;;;;;;5037536;28;20041;-70
2023/11/10 06:43:28;;;;;;;1999.90;999.90;;;7.40;99.90;;;;;;5050667;28;20032;-69
2023/11/10 06:45:54;;;;;;;1999.90;999.90;;;7.40;99.90;;;;;;5048936;28;20029;-70
2023/11/10 06:48:20;;;;;;;1999.90;999.90;;;7.40;99.90;;;;;;5049837;28;20032;-69
2023/11/10 06:50:45;;;;;;;1999.90;999.90;;;7.40;99.90;;;;;;5053171;28;20348;-69
2023/11/10 06:53:11;;;;;;;1999.90;999.90;;;7.40;99.90;;;;;;5050743;28;20098;-69
2023/11/10 06:55:37;;;;;;;1999.90;999.90;;;7.40;99.90;;;;;;5047742;28;20021;-69
2023/11/10 06:58:05;;;;;;;1999.90;999.90;;;7.40;99.90;;;;;;5050121;28;20100;-69
2023/11/10 07:00:30;;;;;;;1999.90;999.90;;;7.40;99.90;;;;;;5052484;28;20033;-69
2023/11/10 07:02:57;;;;;;;1999.90;999.90;;;7.40;99.90;;;;;;5051297;28;20059;-68
2023/11/10 07:05:25;;;;;;;1999.90;999.90;;;7.40;99.90;;;;;;5048464;28;20319;-68
2023/11/10 07:07:52;;;;;;;1999.90;999.90;;;7.50;99.90;;;;;;5052072;28;20032;-68
2023/11/10 07:10:18;;;;;;;1999.90;999.90;;;7.50;99.90;;;;;;5049161;28;20028;-68
2023/11/10 07:12:44;;;;;;;1999.90;999.90;;;7.50;99.90;;;;;;5050282;28;20462;-69
2023/11/10 07:15:10;;;;;;;1999.90;999.90;;;7.50;99.90;;;;;;5052545;28;20243;-81
2023/11/10 07:17:36;;;;;;;1999.90;999.90;;;7.50;99.90;;;;;;5052123;28;20338;-68
2023/11/10 07:20:06;;;;;;;1999.90;999.90;;;7.60;99.90;;;;;;5052422;28;20029;-69
2023/11/10 07:22:32;;;;;;;1999.90;999.90;;;7.50;99.90;;;;;;5043547;28;20033;-68
2023/11/10 07:24:58;;;;;;;1999.90;999.90;;;7.50;99.90;;;;;;5047281;28;20051;-77
2023/11/10 07:27:25;;;;;;;1999.90;999.90;;;7.50;99.90;;;;;;5048640;28;20029;-68
2023/11/10 07:29:51;;;;;;;1999.90;999.90;;;7.50;99.90;;;;;;5048321;28;20730;-69
2023/11/10 07:32:18;;;;;;;1999.90;999.90;;;7.50;99.90;;;;;;5055260;28;20029;-68
2023/11/10 07:34:45;;;;;;;1999.90;999.90;;;7.50;99.90;;;;;;5056891;28;20037;-69
2023/11/10 07:37:11;;;;;;;1999.90;999.90;;;7.50;99.90;;;;;;5052881;28;20542;-69
2023/11/10 07:39:37;;;;;;;1999.90;999.90;;;7.40;99.90;;;;;;5055956;28;20416;-68
2023/11/10 07:42:03;;;;;;;1999.90;999.90;;;7.40;99.90;;;;;;5055662;28;20029;-69
2023/11/10 07:44:29;;;;;;;1999.90;999.90;;;7.50;99.90;;;;;;5056500;28;20269;-71
2023/11/10 07:46:55;;;;;;;1999.90;999.90;;;7.40;99.90;;;;;;5056597;28;20033;-68
2023/11/10 07:49:21;;;;;;;1999.90;999.90;;;7.40;99.90;;;;;;5051623;28;20033;-75
2023/11/10 07:51:47;;;;;;;1999.90;999.90;;;7.40;99.90;;;;;;5044457;28;20049;-69
2023/11/10 07:54:17;;;;;;;1999.90;999.90;;;7.40;99.90;;;;;;5048034;28;20044;-69
2023/11/10 07:56:46;;;;;;;1999.90;999.90;;;7.40;99.90;;;;;;5047125;28;20032;-68
2023/11/10 07:59:12;;;;;;;1999.90;999.90;;;7.40;99.90;;;;;;5041725;28;20399;-68
2023/11/10 08:01:41;;;;;;;1999.90;999.90;;;7.40;99.90;;;;;;5047216;28;20152;-78
2023/11/10 08:04:10;;;;;;;1999.90;999.90;;;7.50;99.90;;;;;;5043665;28;20463;-69
2023/11/10 08:06:37;;;;;;;1999.90;999.90;;;7.40;99.90;;;;;;5053649;28;20029;-69
2023/11/10 08:09:03;;;;;;;1999.90;999.90;;;7.40;99.90;;;;;;5041566;28;20029;-70
2023/11/10 08:11:30;;;;;;;1999.90;999.90;;;7.40;99.90;;;;;;5054005;28;20041;-69
2023/11/10 08:13:57;;;;;;;1999.90;999.90;;;7.40;99.90;;;;;;5052929;28;20032;-69
2023/11/10 08:16:23;;;;;;;1999.90;999.90;;;7.50;99.90;;;;;;5044128;28;20117;-69
2023/11/10 08:18:49;;;;;;;1999.90;999.90;;;7.50;99.90;;;;;;5054291;28;20021;-69
2023/11/10 08:21:16;;;;;;;1999.90;999.90;;;7.40;99.90;;;;;;5056023;28;20348;-69
2023/11/10 08:23:42;;;;;;;1999.90;999.90;;;7.50;99.90;;;;;;5055503;28;20082;-69
2023/11/10 08:26:08;;;;;;;1999.90;999.90;;;7.40;99.90;;;;;;5056072;28;20036;-69
2023/11/10 08:28:34;;;;;;;1999.90;999.90;;;7.40;99.90;;;;;;5054202;28;20343;-69
2023/11/10 08:30:59;;;;;;;1999.90;999.90;;;7.50;99.90;;;;;;5055877;28;20103;-70
2023/11/10 08:33:26;;;;;;;1999.90;999.90;;;7.50;99.90;;;;;;5055745;28;20404;-69
2023/11/10 08:35:52;;;;;;;1999.90;999.90;;;7.50;99.90;;;;;;5054950;28;20037;-70
2023/11/10 08:38:18;;;;;;;1999.90;999.90;;;7.50;99.90;;;;;;5054894;28;20463;-68
2023/11/10 08:40:44;;;;;;;1999.90;999.90;;;7.50;99.90;;;;;;5054166;28;20053;-68
2023/11/10 08:43:11;;;;;;;1999.90;999.90;;;7.50;99.90;;;;;;5054928;28;20319;-68
2023/11/10 08:45:36;;;;;;;1999.90;999.90;;;7.50;99.90;;;;;;5052236;28;20391;-68
2023/11/10 08:48:02;;;;;;;1999.90;999.90;;;7.50;99.90;;;;;;5054832;28;20108;-69
2023/11/10 08:50:28;;;;;;;1999.90;999.90;;;7.50;99.90;;;;;;5052357;28;20029;-68
2023/11/10 08:52:54;;;;;;;1999.90;999.90;;;7.50;99.90;;;;;;5055023;28;20039;-75
2023/11/10 08:55:22;;;;;;;1999.90;999.90;;;7.50;99.90;;;;;;5053527;28;20048;-69
2023/11/10 08:57:48;;;;;;;1999.90;999.90;;;7.50;99.90;;;;;;5053214;28;20021;-68
2023/11/10 09:00:16;;;;;;;1999.90;999.90;;;7.60;99.90;;;;;;5045420;28;20037;-68
2023/11/10 09:02:43;;;;;;;1999.90;999.90;;;7.70;99.90;;;;;;5055076;28;20029;-69
2023/11/10 09:05:11;;;;;;;1999.90;999.90;;;7.70;99.90;;;;;;5048360;28;20021;-69
2023/11/10 09:07:38;;;;;;;1999.90;999.90;;;7.70;99.90;;;;;;5050072;28;20025;-68
2023/11/10 09:10:04;;;;;;;1999.90;999.90;;;7.70;99.90;;;;;;5045895;28;20104;-69
2023/11/10 09:12:32;;;;;;;1999.90;999.90;;;7.70;99.90;;;;;;5054704;28;20068;-68
2023/11/10 09:14:58;;;;;;;1999.90;999.90;;;7.70;99.90;;;;;;5051558;28;20025;-75
2023/11/10 09:17:24;;;;;;;1999.90;999.90;;;7.70;99.90;;;;;;5049298;28;20017;-68
2023/11/10 09:19:51;;;;;;;1999.90;999.90;;;7.70;99.90;;;;;;5053276;28;20029;-68
2023/11/10 09:22:18;;;;;;;1999.90;999.90;;;7.70;99.90;;;;;;5054937;28;20025;-68
2023/11/10 09:24:45;;;;;;;1999.90;999.90;;;7.70;99.90;;;;;;5048784;28;20116;-69
2023/11/10 09:27:11;;;;;;;1999.90;999.90;;;7.70;99.90;;;;;;5053518;28;20323;-69
2023/11/10 09:29:39;;;;;;;1999.90;999.90;;;7.70;99.90;;;;;;5054829;28;20108;-69
2023/11/10 09:32:11;;;;;;;1999.90;999.90;;;7.70;99.90;;;;;;5053747;28;20025;-68
2023/11/10 09:34:38;;;;;;;1999.90;999.90;;;7.70;99.90;;;;;;5053803;28;20340;-68
2023/11/10 09:37:05;;;;;;;1999.90;999.90;;;7.70;99.90;;;;;;5052946;28;20029;-68
2023/11/10 09:39:31;;;;;;;1999.90;999.90;;;7.70;99.90;;;;;;5046433;28;20075;-69
2023/11/10 09:42:07;;;;;;;1999.90;999.90;;;7.70;99.90;;;;;;5053950;28;20415;-68
2023/11/10 09:44:42;;;;;;;1999.90;999.90;;;7.70;99.90;;;;;;5051893;28;20047;-69
2023/11/10 09:47:08;;;;;;;1999.90;999.90;;;7.70;99.90;;;;;;5051089;28;20350;-69
2023/11/10 09:49:35;;;;;;;1999.90;999.90;;;7.70;99.90;;;;;;5051443;28;20037;-68
2023/11/10 09:52:02;;;;;;;1999.90;999.90;;;7.70;99.90;;;;;;5049755;28;20045;-68
2023/11/10 09:54:31;;;;;;;1999.90;999.90;;;7.70;99.90;;;;;;5051952;28;20040;-68
2023/11/10 09:56:58;;;;;;;1999.90;999.90;;;7.70;99.90;;;;;;5047280;28;20053;-70
2023/11/10 09:59:27;;;;;;;1999.90;999.90;;;7.70;99.90;;;;;;5052313;28;20068;-68
2023/11/10 10:01:56;;;;;;;1999.90;999.90;;;7.70;99.90;;;;;;5049930;28;20025;-70
2023/11/10 10:04:22;;;;;;;1999.90;999.90;;;7.70;99.90;;;;;;5036919;28;20032;-68
2023/11/10 10:06:52;;;;;;;1999.90;999.90;;;7.70;99.90;;;;;;5046903;28;20025;-69
2023/11/10 10:09:19;;;;;;;1999.90;999.90;;;7.70;99.90;;;;;;5044076;28;20064;-68
2023/11/10 10:11:45;;;;;;;1999.90;999.90;;;7.70;99.90;;;;;;5043311;28;20036;-68
2023/11/10 10:14:12;;;;;;;1999.90;999.90;;;7.70;99.90;;;;;;5042300;28;20045;-71
2023/11/10 10:16:39;;;;;;;;;;;7.70;99.90;;;;;;5046885;28;20018;-68
2023/11/10 10:19:05;;;;;;;1999.90;999.90;;;7.80;99.90;;;;;;5047670;28;19927;-69
2023/11/10 10:21:41;;;;;;;1999.90;999.90;;;7.80;99.90;;;;;;5041063;28;20030;-68
2023/11/10 10:24:07;;;;;;;1999.90;999.90;;;7.80;99.90;;;;;;5045676;28;20116;-68
2023/11/10 10:26:33;;;;;;;1999.90;999.90;;;7.90;99.90;;;;;;5050748;28;20021;-68
2023/11/10 10:29:03;;;;;;;1999.90;999.90;;;7.90;99.90;;;;;;5046124;28;20070;-68
2023/11/10 10:31:29;;;;;;;1999.90;999.90;;;8.00;99.90;;;;;;5074417;28;20029;-69
2023/11/10 10:33:55;;;;;;;1999.90;999.90;;;8.00;99.90;;;;;;5045590;28;20168;-69
2023/11/10 10:36:21;;;;;;;1999.90;999.90;;;8.00;99.90;;;;;;5037974;28;20116;-68
2023/11/10 10:38:53;;;;;;;1999.90;999.90;;;8.00;99.90;;;;;;5050813;28;20025;-69
2023/11/10 10:41:25;;;;;;;1999.90;999.90;;;8.00;99.90;;;;;;5046105;28;20029;-69
2023/11/10 10:43:52;;;;;;;1999.90;999.90;;;8.10;99.90;;;;;;5053389;28;20028;-68
2023/11/10 10:46:22;;;;;;;1999.90;999.90;;;8.10;99.90;;;;;;5051664;28;20411;-69
2023/11/10 10:48:49;;;;;;;1999.90;999.90;;;8.00;99.90;;;;;;5047542;28;20175;-68
2023/11/10 10:51:17;;;;;;;1999.90;999.90;;;8.10;99.90;;;;;;5047009;28;20041;-76
2023/11/10 10:53:48;;;;;;;1999.90;999.90;;;8.10;99.90;;;;;;5045651;28;20086;-69
2023/11/10 10:56:18;;;;;;;1999.90;999.90;;;8.10;99.90;;;;;;5040851;28;20033;-68
2023/11/10 10:58:44;;;;;;;1999.90;999.90;;;8.10;99.90;;;;;;5039918;28;20096;-69
2023/11/10 11:01:11;;;;;;;1999.90;999.90;;;8.10;99.90;;;;;;5041068;28;20187;-80
2023/11/10 11:03:53;;;;;;;1999.90;999.90;;;8.10;99.90;;;;;;5037441;28;20435;-69
2023/11/10 11:06:42;;;;;;;1999.90;999.90;;;8.10;99.90;;;;;;5046820;28;20021;-68
2023/11/10 11:09:19;;;;;;;1999.90;999.90;;;8.10;99.90;;;;;;5037603;28;20037;-69
2023/11/10 11:12:15;;;;;;;;;;;8.20;99.90;;;;;;5042595;28;20057;-68
2023/11/10 11:14:50;;;;;;;;;;;8.10;99.90;;;;;;5038640;28;19909;-69
2023/11/10 11:17:54;;;;;;;1999.90;999.90;;;8.20;99.90;;;;;;5041346;28;19909;-69
2023/11/10 11:20:21;;;;;;;1999.90;999.90;;;8.10;99.90;;;;;;5046048;28;20033;-79
2023/11/10 11:22:47;;;;;;;1999.90;999.90;;;8.20;99.90;;;;;;5039678;28;20041;-69
2023/11/10 11:25:13;;;;;;;1999.90;999.90;;;8.20;99.90;;;;;;5038010;28;20051;-70
2023/11/10 11:27:39;;;;;;;1999.90;999.90;;;8.10;99.90;;;;;;5039753;28;20491;-69
2023/11/10 11:30:08;;;;;;;1999.90;999.90;;;8.10;99.90;;;;;;5036954;28;20040;-69
2023/11/10 11:32:41;;;;;;;1999.90;999.90;;;8.10;99.90;;;;;;5047671;28;20416;-78
2023/11/10 11:35:17;;;;;;;1999.90;999.90;;;8.10;99.90;;;;;;5042213;28;20056;-69
2023/11/10 11:37:44;;;;;;;1999.90;999.90;;;8.10;99.90;;;;;;5042160;28;20029;-69
2023/11/10 11:40:11;;;;;;;1999.90;999.90;;;8.10;99.90;;;;;;5039306;28;20375;-69
2023/11/10 11:42:41;;;;;;;1999.90;999.90;;;8.10;99.90;;;;;;5047235;28;20108;-77
2023/11/10 11:45:14;;;;;;;1999.90;999.90;;;8.10;99.90;;;;;;5037028;28;20037;-70
2023/11/10 11:47:44;;;;;;;1999.90;999.90;;;8.10;99.90;;;;;;5038635;28;20025;-69
2023/11/10 11:50:10;;;;;;;1999.90;999.90;;;8.10;99.90;;;;;;5044858;28;20055;-69
2023/11/10 11:52:37;;;;;;;1999.90;999.90;;;8.20;99.90;;;;;;5046062;28;20037;-69
2023/11/10 11:55:04;;;;;;;;;;;8.20;99.90;;;;;;5042634;28;20023;-71
2023/11/10 11:57:34;;;;;;;1999.90;999.90;;;8.20;99.90;;;;;;5040260;28;19912;-69
2023/11/10 12:00:02;;;;;;;1999.90;999.90;;;8.20;99.90;;;;;;5040702;28;20028;-69
2023/11/10 12:02:28;;;;;;;1999.90;999.90;;;8.30;99.90;;;;;;5043463;28;20300;-70
2023/11/10 12:04:54;;;;;;;1999.90;999.90;;;8.30;99.90;;;;;;5045590;28;20112;-69
2023/11/10 12:07:22;;;;;;;1999.90;999.90;;;8.30;99.90;;;;;;5049055;28;20060;-78
2023/11/10 12:09:48;;;;;;;1999.90;999.90;;;8.30;99.90;;;;;;5047271;28;20274;-69